sensor_id;sensor_type;location;lat;lon;timestamp;temperature;humidity
69628;DHT22;56850;51.984;5.088;2023-01-16T00:02:26;6.70;78.10
69628;DHT22;56850;51.984;5.088;2023-01-16T00:04:53;6.70;78.00
69628;DHT22;56850;51.984;5.088;2023-01-16T00:07:20;6.70;78.00
69628;DHT22;56850;51.984;5.088;2023-01-16T00:09:47;6.80;77.90
69628;DHT22;56850;51.984;5.088;2023-01-16T00:12:13;6.80;77.90
69628;DHT22;56850;51.984;5.088;2023-01-16T00:14:40;6.80;77.80
69628;DHT22;56850;51.984;5.088;2023-01-16T00:17:07;6.80;77.80
69628;DHT22;56850;51.984;5.088;2023-01-16T00:19:34;6.80;77.80
69628;DHT22;56850;51.984;5.088;2023-01-16T00:22:01;6.80;77.70
69628;DHT22;56850;51.984;5.088;2023-01-16T00:24:28;6.80;77.70
69628;DHT22;56850;51.984;5.088;2023-01-16T00:26:55;6.80;77.70
69628;DHT22;56850;51.984;5.088;2023-01-16T00:29:22;6.70;77.80
69628;DHT22;56850;51.984;5.088;2023-01-16T00:31:49;6.70;77.80
69628;DHT22;56850;51.984;5.088;2023-01-16T00:34:16;6.70;77.80
69628;DHT22;56850;51.984;5.088;2023-01-16T00:36:43;6.60;77.80
69628;DHT22;56850;51.984;5.088;2023-01-16T00:39:10;6.60;77.90
69628;DHT22;56850;51.984;5.088;2023-01-16T00:41:37;6.50;78.00
69628;DHT22;56850;51.984;5.088;2023-01-16T00:44:04;6.50;77.90
69628;DHT22;56850;51.984;5.088;2023-01-16T00:46:31;6.50;78.00
69628;DHT22;56850;51.984;5.088;2023-01-16T00:48:58;6.50;78.10
69628;DHT22;56850;51.984;5.088;2023-01-16T00:51:25;6.50;77.90
69628;DHT22;56850;51.984;5.088;2023-01-16T00:53:52;6.50;78.00
69628;DHT22;56850;51.984;5.088;2023-01-16T00:56:19;6.50;77.70
69628;DHT22;56850;51.984;5.088;2023-01-16T00:58:45;6.50;77.70
69628;DHT22;56850;51.984;5.088;2023-01-16T01:01:13;6.40;77.50
69628;DHT22;56850;51.984;5.088;2023-01-16T01:03:40;6.30;77.60
69628;DHT22;56850;51.984;5.088;2023-01-16T01:06:09;6.20;78.00
69628;DHT22;56850;51.984;5.088;2023-01-16T01:08:38;6.20;78.00
69628;DHT22;56850;51.984;5.088;2023-01-16T01:11:13;6.20;78.00
69628;DHT22;56850;51.984;5.088;2023-01-16T01:13:41;6.20;77.90
69628;DHT22;56850;51.984;5.088;2023-01-16T01:16:09;6.20;77.70
69628;DHT22;56850;51.984;5.088;2023-01-16T01:18:37;6.10;77.80
69628;DHT22;56850;51.984;5.088;2023-01-16T01:21:05;6.10;77.90
69628;DHT22;56850;51.984;5.088;2023-01-16T01:23:32;6.10;77.90
69628;DHT22;56850;51.984;5.088;2023-01-16T01:26:06;6.00;77.80
69628;DHT22;56850;51.984;5.088;2023-01-16T01:28:33;6.00;77.90
69628;DHT22;56850;51.984;5.088;2023-01-16T01:31:05;6.00;78.00
69628;DHT22;56850;51.984;5.088;2023-01-16T01:33:32;6.00;78.00
69628;DHT22;56850;51.984;5.088;2023-01-16T01:35:59;6.00;78.10
69628;DHT22;56850;51.984;5.088;2023-01-16T01:38:26;6.00;77.90
69628;DHT22;56850;51.984;5.088;2023-01-16T01:40:53;6.00;77.80
69628;DHT22;56850;51.984;5.088;2023-01-16T01:43:20;6.00;77.80
69628;DHT22;56850;51.984;5.088;2023-01-16T01:45:54;6.00;77.70
69628;DHT22;56850;51.984;5.088;2023-01-16T01:48:28;6.00;77.70
69628;DHT22;56850;51.984;5.088;2023-01-16T01:51:07;6.00;77.80
69628;DHT22;56850;51.984;5.088;2023-01-16T01:53:46;6.00;77.70
69628;DHT22;56850;51.984;5.088;2023-01-16T01:56:27;6.00;77.70
69628;DHT22;56850;51.984;5.088;2023-01-16T01:58:58;6.00;77.60
69628;DHT22;56850;51.984;5.088;2023-01-16T02:01:27;6.00;77.60
69628;DHT22;56850;51.984;5.088;2023-01-16T02:04:01;6.00;77.50
69628;DHT22;56850;51.984;5.088;2023-01-16T02:06:34;6.00;77.50
69628;DHT22;56850;51.984;5.088;2023-01-16T02:09:04;6.00;77.40
69628;DHT22;56850;51.984;5.088;2023-01-16T02:11:36;6.00;77.30
69628;DHT22;56850;51.984;5.088;2023-01-16T02:14:08;6.00;77.30
69628;DHT22;56850;51.984;5.088;2023-01-16T02:16:36;5.90;77.40
69628;DHT22;56850;51.984;5.088;2023-01-16T02:36:51;5.80;77.60
69628;DHT22;56850;51.984;5.088;2023-01-16T02:44:40;5.70;77.80
69628;DHT22;56850;51.984;5.088;2023-01-16T02:47:15;5.70;77.80
69628;DHT22;56850;51.984;5.088;2023-01-16T02:49:52;5.70;78.00
69628;DHT22;56850;51.984;5.088;2023-01-16T02:52:40;5.70;78.00
69628;DHT22;56850;51.984;5.088;2023-01-16T02:57:50;5.70;78.10
69628;DHT22;56850;51.984;5.088;2023-01-16T03:00:21;5.70;78.10
69628;DHT22;56850;51.984;5.088;2023-01-16T03:02:48;5.70;78.00
69628;DHT22;56850;51.984;5.088;2023-01-16T03:05:15;5.70;78.10
69628;DHT22;56850;51.984;5.088;2023-01-16T03:13:30;5.80;78.00
69628;DHT22;56850;51.984;5.088;2023-01-16T03:30:14;5.70;77.80
69628;DHT22;56850;51.984;5.088;2023-01-16T03:33:04;5.70;77.80
69628;DHT22;56850;51.984;5.088;2023-01-16T03:35:37;5.70;77.80
69628;DHT22;56850;51.984;5.088;2023-01-16T03:38:08;5.70;77.80
69628;DHT22;56850;51.984;5.088;2023-01-16T03:40:40;5.80;77.70
69628;DHT22;56850;51.984;5.088;2023-01-16T03:43:20;5.80;77.70
69628;DHT22;56850;51.984;5.088;2023-01-16T03:46:16;5.80;77.70
69628;DHT22;56850;51.984;5.088;2023-01-16T03:48:55;5.80;77.60
69628;DHT22;56850;51.984;5.088;2023-01-16T03:51:33;5.80;77.40
69628;DHT22;56850;51.984;5.088;2023-01-16T03:59:45;5.80;77.30
69628;DHT22;56850;51.984;5.088;2023-01-16T04:02:48;5.80;77.20
69628;DHT22;56850;51.984;5.088;2023-01-16T04:05:18;5.70;77.20
69628;DHT22;56850;51.984;5.088;2023-01-16T04:07:48;5.70;77.30
69628;DHT22;56850;51.984;5.088;2023-01-16T04:10:35;5.70;77.30
69628;DHT22;56850;51.984;5.088;2023-01-16T04:13:13;5.60;77.40
69628;DHT22;56850;51.984;5.088;2023-01-16T04:15:45;5.60;77.40
69628;DHT22;56850;51.984;5.088;2023-01-16T04:18:13;5.60;77.40
69628;DHT22;56850;51.984;5.088;2023-01-16T04:20:43;5.60;77.50
69628;DHT22;56850;51.984;5.088;2023-01-16T04:23:12;5.60;77.50
69628;DHT22;56850;51.984;5.088;2023-01-16T04:25:39;5.60;77.60
69628;DHT22;56850;51.984;5.088;2023-01-16T04:28:06;5.50;77.60
69628;DHT22;56850;51.984;5.088;2023-01-16T04:30:33;5.50;77.60
69628;DHT22;56850;51.984;5.088;2023-01-16T04:33:01;5.50;77.70
69628;DHT22;56850;51.984;5.088;2023-01-16T04:35:28;5.60;77.80
69628;DHT22;56850;51.984;5.088;2023-01-16T04:37:55;5.60;77.70
69628;DHT22;56850;51.984;5.088;2023-01-16T04:40:22;5.60;77.80
69628;DHT22;56850;51.984;5.088;2023-01-16T04:42:49;5.60;77.70
69628;DHT22;56850;51.984;5.088;2023-01-16T04:45:16;5.70;77.80
69628;DHT22;56850;51.984;5.088;2023-01-16T04:47:47;5.70;77.80
69628;DHT22;56850;51.984;5.088;2023-01-16T04:50:14;5.70;77.60
69628;DHT22;56850;51.984;5.088;2023-01-16T04:52:42;5.70;77.50
69628;DHT22;56850;51.984;5.088;2023-01-16T04:55:10;5.70;77.50
69628;DHT22;56850;51.984;5.088;2023-01-16T04:57:37;5.80;77.40
69628;DHT22;56850;51.984;5.088;2023-01-16T05:00:06;5.80;77.30
69628;DHT22;56850;51.984;5.088;2023-01-16T05:02:33;5.80;77.30
69628;DHT22;56850;51.984;5.088;2023-01-16T05:05:00;5.80;77.30
69628;DHT22;56850;51.984;5.088;2023-01-16T05:07:27;5.80;77.20
69628;DHT22;56850;51.984;5.088;2023-01-16T05:09:54;5.80;77.20
69628;DHT22;56850;51.984;5.088;2023-01-16T05:12:21;5.80;77.30
69628;DHT22;56850;51.984;5.088;2023-01-16T05:14:48;5.80;77.20
69628;DHT22;56850;51.984;5.088;2023-01-16T05:17:15;5.80;77.30
69628;DHT22;56850;51.984;5.088;2023-01-16T05:19:42;5.80;77.30
69628;DHT22;56850;51.984;5.088;2023-01-16T05:22:09;5.80;77.20
69628;DHT22;56850;51.984;5.088;2023-01-16T05:24:36;5.80;77.20
69628;DHT22;56850;51.984;5.088;2023-01-16T05:27:03;5.80;77.30
69628;DHT22;56850;51.984;5.088;2023-01-16T05:29:30;5.80;77.30
69628;DHT22;56850;51.984;5.088;2023-01-16T05:31:57;5.80;77.30
69628;DHT22;56850;51.984;5.088;2023-01-16T05:34:24;5.80;77.30
69628;DHT22;56850;51.984;5.088;2023-01-16T05:36:51;5.80;77.40
69628;DHT22;56850;51.984;5.088;2023-01-16T05:39:18;5.80;77.40
69628;DHT22;56850;51.984;5.088;2023-01-16T05:41:45;5.80;77.40
69628;DHT22;56850;51.984;5.088;2023-01-16T05:44:12;5.80;77.50
69628;DHT22;56850;51.984;5.088;2023-01-16T05:46:39;5.80;77.50
69628;DHT22;56850;51.984;5.088;2023-01-16T05:49:06;5.80;77.50
69628;DHT22;56850;51.984;5.088;2023-01-16T05:51:33;5.90;77.60
69628;DHT22;56850;51.984;5.088;2023-01-16T05:54:00;5.80;77.50
69628;DHT22;56850;51.984;5.088;2023-01-16T05:56:27;5.90;77.60
69628;DHT22;56850;51.984;5.088;2023-01-16T05:58:55;5.90;77.60
69628;DHT22;56850;51.984;5.088;2023-01-16T06:01:25;5.90;77.60
69628;DHT22;56850;51.984;5.088;2023-01-16T06:03:52;5.90;77.70
69628;DHT22;56850;51.984;5.088;2023-01-16T06:06:19;5.90;77.70
69628;DHT22;56850;51.984;5.088;2023-01-16T06:08:46;5.90;77.70
69628;DHT22;56850;51.984;5.088;2023-01-16T06:11:13;5.90;77.70
69628;DHT22;56850;51.984;5.088;2023-01-16T06:13:40;5.90;77.70
69628;DHT22;56850;51.984;5.088;2023-01-16T06:16:07;6.00;77.80
69628;DHT22;56850;51.984;5.088;2023-01-16T06:18:34;5.90;77.80
69628;DHT22;56850;51.984;5.088;2023-01-16T06:21:01;6.00;77.90
69628;DHT22;56850;51.984;5.088;2023-01-16T06:23:28;6.00;77.90
69628;DHT22;56850;51.984;5.088;2023-01-16T06:25:56;6.00;78.00
69628;DHT22;56850;51.984;5.088;2023-01-16T06:28:23;6.00;78.00
69628;DHT22;56850;51.984;5.088;2023-01-16T06:30:51;6.00;78.10
69628;DHT22;56850;51.984;5.088;2023-01-16T06:33:19;6.00;78.20
69628;DHT22;56850;51.984;5.088;2023-01-16T06:35:46;6.00;78.30
69628;DHT22;56850;51.984;5.088;2023-01-16T06:38:13;6.00;78.30
69628;DHT22;56850;51.984;5.088;2023-01-16T06:40:39;6.00;78.40
69628;DHT22;56850;51.984;5.088;2023-01-16T06:43:06;6.00;78.40
69628;DHT22;56850;51.984;5.088;2023-01-16T06:45:33;6.00;78.50
69628;DHT22;56850;51.984;5.088;2023-01-16T06:48:01;6.00;78.60
69628;DHT22;56850;51.984;5.088;2023-01-16T06:50:27;6.00;78.70
69628;DHT22;56850;51.984;5.088;2023-01-16T06:52:54;6.00;78.70
69628;DHT22;56850;51.984;5.088;2023-01-16T06:55:21;6.00;78.80
69628;DHT22;56850;51.984;5.088;2023-01-16T06:57:48;6.00;78.90
69628;DHT22;56850;51.984;5.088;2023-01-16T07:00:16;6.00;79.00
69628;DHT22;56850;51.984;5.088;2023-01-16T07:02:43;6.00;79.00
69628;DHT22;56850;51.984;5.088;2023-01-16T07:05:15;6.00;79.00
69628;DHT22;56850;51.984;5.088;2023-01-16T07:07:42;6.00;79.10
69628;DHT22;56850;51.984;5.088;2023-01-16T07:10:09;6.00;79.10
69628;DHT22;56850;51.984;5.088;2023-01-16T07:12:36;6.00;79.20
69628;DHT22;56850;51.984;5.088;2023-01-16T07:15:04;6.00;79.30
69628;DHT22;56850;51.984;5.088;2023-01-16T07:17:49;6.00;79.20
69628;DHT22;56850;51.984;5.088;2023-01-16T07:20:35;6.00;79.20
69628;DHT22;56850;51.984;5.088;2023-01-16T07:23:26;6.00;79.20
69628;DHT22;56850;51.984;5.088;2023-01-16T07:25:56;6.00;79.20
69628;DHT22;56850;51.984;5.088;2023-01-16T07:28:23;6.00;79.30
69628;DHT22;56850;51.984;5.088;2023-01-16T07:30:50;6.00;79.40
69628;DHT22;56850;51.984;5.088;2023-01-16T07:33:17;6.00;79.40
69628;DHT22;56850;51.984;5.088;2023-01-16T07:35:44;6.00;79.30
69628;DHT22;56850;51.984;5.088;2023-01-16T07:38:12;6.00;79.50
69628;DHT22;56850;51.984;5.088;2023-01-16T07:40:39;6.00;79.40
69628;DHT22;56850;51.984;5.088;2023-01-16T07:43:06;6.00;79.40
69628;DHT22;56850;51.984;5.088;2023-01-16T07:45:33;6.00;79.30
69628;DHT22;56850;51.984;5.088;2023-01-16T07:48:00;6.10;79.30
69628;DHT22;56850;51.984;5.088;2023-01-16T07:50:30;6.10;79.30
69628;DHT22;56850;51.984;5.088;2023-01-16T07:52:57;6.10;79.20
69628;DHT22;56850;51.984;5.088;2023-01-16T07:55:24;6.10;79.20
69628;DHT22;56850;51.984;5.088;2023-01-16T07:57:51;6.10;79.20
69628;DHT22;56850;51.984;5.088;2023-01-16T08:00:18;6.10;79.20
69628;DHT22;56850;51.984;5.088;2023-01-16T08:02:46;6.00;79.30
69628;DHT22;56850;51.984;5.088;2023-01-16T08:05:12;6.10;79.40
69628;DHT22;56850;51.984;5.088;2023-01-16T08:07:40;6.00;79.30
69628;DHT22;56850;51.984;5.088;2023-01-16T08:10:07;6.10;79.40
69628;DHT22;56850;51.984;5.088;2023-01-16T08:12:36;6.10;79.40
69628;DHT22;56850;51.984;5.088;2023-01-16T08:15:03;6.10;79.50
69628;DHT22;56850;51.984;5.088;2023-01-16T08:17:30;6.10;79.40
69628;DHT22;56850;51.984;5.088;2023-01-16T08:19:57;6.10;79.40
69628;DHT22;56850;51.984;5.088;2023-01-16T08:22:25;6.10;79.40
69628;DHT22;56850;51.984;5.088;2023-01-16T08:24:52;6.00;79.40
69628;DHT22;56850;51.984;5.088;2023-01-16T08:27:19;6.10;79.60
69628;DHT22;56850;51.984;5.088;2023-01-16T08:29:45;6.10;79.50
69628;DHT22;56850;51.984;5.088;2023-01-16T08:32:12;6.10;79.50
69628;DHT22;56850;51.984;5.088;2023-01-16T08:34:41;6.10;79.50
69628;DHT22;56850;51.984;5.088;2023-01-16T08:37:08;6.10;79.60
69628;DHT22;56850;51.984;5.088;2023-01-16T08:39:37;6.00;79.70
69628;DHT22;56850;51.984;5.088;2023-01-16T08:42:04;6.00;79.70
69628;DHT22;56850;51.984;5.088;2023-01-16T08:44:49;6.00;79.80
69628;DHT22;56850;51.984;5.088;2023-01-16T08:47:37;6.00;79.80
69628;DHT22;56850;51.984;5.088;2023-01-16T08:50:23;6.00;79.80
69628;DHT22;56850;51.984;5.088;2023-01-16T08:53:08;6.00;80.00
69628;DHT22;56850;51.984;5.088;2023-01-16T08:55:35;6.00;80.10
69628;DHT22;56850;51.984;5.088;2023-01-16T08:58:02;6.10;80.00
69628;DHT22;56850;51.984;5.088;2023-01-16T09:00:29;6.00;80.00
69628;DHT22;56850;51.984;5.088;2023-01-16T09:02:56;6.10;80.00
69628;DHT22;56850;51.984;5.088;2023-01-16T09:05:26;6.10;80.00
69628;DHT22;56850;51.984;5.088;2023-01-16T09:07:54;6.10;80.10
69628;DHT22;56850;51.984;5.088;2023-01-16T09:10:21;6.10;80.20
69628;DHT22;56850;51.984;5.088;2023-01-16T09:12:48;6.10;80.20
69628;DHT22;56850;51.984;5.088;2023-01-16T09:15:33;6.10;80.20
69628;DHT22;56850;51.984;5.088;2023-01-16T09:18:00;6.10;80.20
69628;DHT22;56850;51.984;5.088;2023-01-16T09:20:27;6.10;80.20
69628;DHT22;56850;51.984;5.088;2023-01-16T09:22:58;6.20;80.30
69628;DHT22;56850;51.984;5.088;2023-01-16T09:25:26;6.10;80.20
69628;DHT22;56850;51.984;5.088;2023-01-16T09:27:53;6.10;80.30
69628;DHT22;56850;51.984;5.088;2023-01-16T09:30:21;6.10;80.30
69628;DHT22;56850;51.984;5.088;2023-01-16T09:32:48;6.20;80.40
69628;DHT22;56850;51.984;5.088;2023-01-16T09:35:15;6.20;80.50
69628;DHT22;56850;51.984;5.088;2023-01-16T09:37:43;6.20;80.50
69628;DHT22;56850;51.984;5.088;2023-01-16T09:40:17;6.20;80.50
69628;DHT22;56850;51.984;5.088;2023-01-16T09:45:51;6.20;80.50
69628;DHT22;56850;51.984;5.088;2023-01-16T09:48:26;6.20;80.60
69628;DHT22;56850;51.984;5.088;2023-01-16T09:51:01;6.30;80.70
69628;DHT22;56850;51.984;5.088;2023-01-16T09:56:41;6.30;80.70
69628;DHT22;56850;51.984;5.088;2023-01-16T09:59:46;6.30;80.70
69628;DHT22;56850;51.984;5.088;2023-01-16T10:02:30;6.30;80.70
69628;DHT22;56850;51.984;5.088;2023-01-16T10:05:00;6.30;80.80
69628;DHT22;56850;51.984;5.088;2023-01-16T10:11:02;6.30;80.60
69628;DHT22;56850;51.984;5.088;2023-01-16T10:16:38;6.20;80.50
69628;DHT22;56850;51.984;5.088;2023-01-16T10:21:57;6.20;80.50
69628;DHT22;56850;51.984;5.088;2023-01-16T10:27:03;6.20;80.50
69628;DHT22;56850;51.984;5.088;2023-01-16T10:32:28;6.30;80.40
69628;DHT22;56850;51.984;5.088;2023-01-16T10:35:01;6.20;80.40
69628;DHT22;56850;51.984;5.088;2023-01-16T10:37:33;6.30;80.40
69628;DHT22;56850;51.984;5.088;2023-01-16T10:40:13;6.30;80.30
69628;DHT22;56850;51.984;5.088;2023-01-16T10:42:42;6.30;80.40
69628;DHT22;56850;51.984;5.088;2023-01-16T10:45:32;6.30;80.50
69628;DHT22;56850;51.984;5.088;2023-01-16T10:48:19;6.40;80.40
69628;DHT22;56850;51.984;5.088;2023-01-16T10:51:06;6.40;80.30
69628;DHT22;56850;51.984;5.088;2023-01-16T10:53:35;6.40;80.40
69628;DHT22;56850;51.984;5.088;2023-01-16T10:56:03;6.40;80.40
69628;DHT22;56850;51.984;5.088;2023-01-16T10:58:36;6.40;80.40
69628;DHT22;56850;51.984;5.088;2023-01-16T11:06:22;6.50;80.40
69628;DHT22;56850;51.984;5.088;2023-01-16T11:09:02;6.60;80.40
69628;DHT22;56850;51.984;5.088;2023-01-16T11:11:34;6.60;80.30
69628;DHT22;56850;51.984;5.088;2023-01-16T11:14:26;6.70;80.50
69628;DHT22;56850;51.984;5.088;2023-01-16T11:17:33;7.00;80.70
69628;DHT22;56850;51.984;5.088;2023-01-16T11:20:31;7.30;80.20
69628;DHT22;56850;51.984;5.088;2023-01-16T11:23:15;7.50;79.60
69628;DHT22;56850;51.984;5.088;2023-01-16T11:25:44;7.50;79.00
69628;DHT22;56850;51.984;5.088;2023-01-16T11:28:26;7.40;78.90
69628;DHT22;56850;51.984;5.088;2023-01-16T11:30:59;7.40;79.00
69628;DHT22;56850;51.984;5.088;2023-01-16T11:33:38;7.30;79.00
69628;DHT22;56850;51.984;5.088;2023-01-16T11:36:06;7.30;78.90
69628;DHT22;56850;51.984;5.088;2023-01-16T11:38:35;7.30;79.20
69628;DHT22;56850;51.984;5.088;2023-01-16T11:41:05;7.30;79.10
69628;DHT22;56850;51.984;5.088;2023-01-16T11:43:35;7.40;79.00
69628;DHT22;56850;51.984;5.088;2023-01-16T11:49:16;7.30;78.70
69628;DHT22;56850;51.984;5.088;2023-01-16T11:51:44;7.30;78.40
69628;DHT22;56850;51.984;5.088;2023-01-16T11:54:16;7.30;78.30
69628;DHT22;56850;51.984;5.088;2023-01-16T12:13:15;7.20;78.20
69628;DHT22;56850;51.984;5.088;2023-01-16T12:16:46;7.10;78.10
69628;DHT22;56850;51.984;5.088;2023-01-16T12:30:56;7.30;78.70
69628;DHT22;56850;51.984;5.088;2023-01-16T12:34:27;7.30;78.60
69628;DHT22;56850;51.984;5.088;2023-01-16T12:37:24;7.30;78.60
69628;DHT22;56850;51.984;5.088;2023-01-16T12:40:03;7.40;78.50
69628;DHT22;56850;51.984;5.088;2023-01-16T12:42:36;7.40;78.60
69628;DHT22;56850;51.984;5.088;2023-01-16T12:45:33;7.40;78.50
69628;DHT22;56850;51.984;5.088;2023-01-16T12:56:48;7.40;78.40
69628;DHT22;56850;51.984;5.088;2023-01-16T13:02:48;7.50;78.40
69628;DHT22;56850;51.984;5.088;2023-01-16T13:04:52;7.40;78.30
69628;DHT22;56850;51.984;5.088;2023-01-16T13:07:21;7.50;78.40
69628;DHT22;56850;51.984;5.088;2023-01-16T13:12:48;7.50;78.40
69628;DHT22;56850;51.984;5.088;2023-01-16T13:15:36;7.50;78.30
69628;DHT22;56850;51.984;5.088;2023-01-16T13:18:16;7.50;78.40
69628;DHT22;56850;51.984;5.088;2023-01-16T13:20:47;7.50;78.30
69628;DHT22;56850;51.984;5.088;2023-01-16T13:23:20;7.50;78.30
69628;DHT22;56850;51.984;5.088;2023-01-16T13:26:03;7.50;78.40
69628;DHT22;56850;51.984;5.088;2023-01-16T13:28:39;7.50;78.40
69628;DHT22;56850;51.984;5.088;2023-01-16T13:34:29;7.60;78.30
69628;DHT22;56850;51.984;5.088;2023-01-16T13:37:10;7.60;78.40
69628;DHT22;56850;51.984;5.088;2023-01-16T13:42:28;7.60;78.30
69628;DHT22;56850;51.984;5.088;2023-01-16T13:45:03;7.50;78.30
69628;DHT22;56850;51.984;5.088;2023-01-16T13:47:51;7.50;78.40
69628;DHT22;56850;51.984;5.088;2023-01-16T13:50:27;7.50;78.40
69628;DHT22;56850;51.984;5.088;2023-01-16T13:52:56;7.50;78.50
69628;DHT22;56850;51.984;5.088;2023-01-16T13:55:32;7.50;78.40
69628;DHT22;56850;51.984;5.088;2023-01-16T13:58:14;7.50;78.30
69628;DHT22;56850;51.984;5.088;2023-01-16T14:00:43;7.50;78.40
69628;DHT22;56850;51.984;5.088;2023-01-16T14:06:20;7.50;78.40
69628;DHT22;56850;51.984;5.088;2023-01-16T14:17:17;7.60;78.60
69628;DHT22;56850;51.984;5.088;2023-01-16T14:22:25;7.60;78.60
69628;DHT22;56850;51.984;5.088;2023-01-16T14:24:55;7.60;78.60
69628;DHT22;56850;51.984;5.088;2023-01-16T14:27:36;7.60;78.80
69628;DHT22;56850;51.984;5.088;2023-01-16T14:30:07;7.60;78.70
69628;DHT22;56850;51.984;5.088;2023-01-16T14:32:47;7.60;78.80
69628;DHT22;56850;51.984;5.088;2023-01-16T14:35:22;7.60;78.70
69628;DHT22;56850;51.984;5.088;2023-01-16T14:38:05;7.60;78.70
69628;DHT22;56850;51.984;5.088;2023-01-16T14:40:39;7.60;78.80
69628;DHT22;56850;51.984;5.088;2023-01-16T14:43:33;7.60;78.90
69628;DHT22;56850;51.984;5.088;2023-01-16T14:49:44;7.50;79.00
69628;DHT22;56850;51.984;5.088;2023-01-16T14:55:48;7.50;79.00
69628;DHT22;56850;51.984;5.088;2023-01-16T14:58:27;7.50;79.10
69628;DHT22;56850;51.984;5.088;2023-01-16T15:00:57;7.40;79.10
69628;DHT22;56850;51.984;5.088;2023-01-16T15:03:46;7.40;79.10
69628;DHT22;56850;51.984;5.088;2023-01-16T15:06:13;7.50;79.20
69628;DHT22;56850;51.984;5.088;2023-01-16T15:08:41;7.50;79.20
69628;DHT22;56850;51.984;5.088;2023-01-16T15:11:24;7.50;79.30
69628;DHT22;56850;51.984;5.088;2023-01-16T15:14:11;7.60;79.20
69628;DHT22;56850;51.984;5.088;2023-01-16T15:17:46;7.60;79.20
69628;DHT22;56850;51.984;5.088;2023-01-16T15:20:26;7.50;79.20
69628;DHT22;56850;51.984;5.088;2023-01-16T15:23:31;7.50;79.20
69628;DHT22;56850;51.984;5.088;2023-01-16T15:31:18;7.60;79.10
69628;DHT22;56850;51.984;5.088;2023-01-16T15:36:41;7.60;79.40
69628;DHT22;56850;51.984;5.088;2023-01-16T15:39:26;7.60;79.20
69628;DHT22;56850;51.984;5.088;2023-01-16T15:42:16;7.50;79.40
69628;DHT22;56850;51.984;5.088;2023-01-16T15:53:19;7.50;79.40
69628;DHT22;56850;51.984;5.088;2023-01-16T15:55:49;7.50;79.40
69628;DHT22;56850;51.984;5.088;2023-01-16T15:58:26;7.50;79.40
69628;DHT22;56850;51.984;5.088;2023-01-16T16:00:56;7.60;79.30
69628;DHT22;56850;51.984;5.088;2023-01-16T16:03:35;7.60;79.30
69628;DHT22;56850;51.984;5.088;2023-01-16T16:06:06;7.60;79.20
69628;DHT22;56850;51.984;5.088;2023-01-16T16:08:42;7.60;79.20
69628;DHT22;56850;51.984;5.088;2023-01-16T16:11:21;7.50;79.20
69628;DHT22;56850;51.984;5.088;2023-01-16T16:14:28;7.50;79.20
69628;DHT22;56850;51.984;5.088;2023-01-16T16:17:30;7.50;79.40
69628;DHT22;56850;51.984;5.088;2023-01-16T16:20:36;7.40;79.40
69628;DHT22;56850;51.984;5.088;2023-01-16T16:25:46;7.40;79.30
69628;DHT22;56850;51.984;5.088;2023-01-16T16:30:44;7.30;79.70
69628;DHT22;56850;51.984;5.088;2023-01-16T16:33:18;7.30;79.60
69628;DHT22;56850;51.984;5.088;2023-01-16T16:35:51;7.30;79.70
69628;DHT22;56850;51.984;5.088;2023-01-16T16:38:32;7.30;79.80
69628;DHT22;56850;51.984;5.088;2023-01-16T16:46:30;7.10;78.40
69628;DHT22;56850;51.984;5.088;2023-01-16T16:51:33;6.80;78.30
69628;DHT22;56850;51.984;5.088;2023-01-16T16:54:08;6.70;78.20
69628;DHT22;56850;51.984;5.088;2023-01-16T16:56:38;6.60;78.50
69628;DHT22;56850;51.984;5.088;2023-01-16T16:59:15;6.60;78.80
69628;DHT22;56850;51.984;5.088;2023-01-16T17:01:49;6.60;78.70
69628;DHT22;56850;51.984;5.088;2023-01-16T17:04:17;6.50;78.30
69628;DHT22;56850;51.984;5.088;2023-01-16T17:06:46;6.50;78.40
69628;DHT22;56850;51.984;5.088;2023-01-16T17:09:15;6.40;78.40
69628;DHT22;56850;51.984;5.088;2023-01-16T17:11:46;6.40;78.50
69628;DHT22;56850;51.984;5.088;2023-01-16T17:14:13;6.30;78.20
69628;DHT22;56850;51.984;5.088;2023-01-16T17:16:40;6.20;78.10
69628;DHT22;56850;51.984;5.088;2023-01-16T17:21:44;6.10;78.10
69628;DHT22;56850;51.984;5.088;2023-01-16T17:24:17;6.10;78.30
69628;DHT22;56850;51.984;5.088;2023-01-16T17:26:44;6.00;78.40
69628;DHT22;56850;51.984;5.088;2023-01-16T17:29:12;6.00;78.40
69628;DHT22;56850;51.984;5.088;2023-01-16T17:31:40;6.00;78.30
69628;DHT22;56850;51.984;5.088;2023-01-16T17:34:15;6.00;78.40
69628;DHT22;56850;51.984;5.088;2023-01-16T17:36:43;6.00;78.30
69628;DHT22;56850;51.984;5.088;2023-01-16T17:39:10;5.90;78.20
69628;DHT22;56850;51.984;5.088;2023-01-16T17:41:38;5.90;78.40
69628;DHT22;56850;51.984;5.088;2023-01-16T17:44:26;5.90;78.20
69628;DHT22;56850;51.984;5.088;2023-01-16T17:47:12;5.90;78.30
69628;DHT22;56850;51.984;5.088;2023-01-16T17:49:39;5.80;78.30
69628;DHT22;56850;51.984;5.088;2023-01-16T17:52:25;5.80;78.60
69628;DHT22;56850;51.984;5.088;2023-01-16T17:54:52;5.80;78.70
69628;DHT22;56850;51.984;5.088;2023-01-16T17:57:38;5.80;78.80
69628;DHT22;56850;51.984;5.088;2023-01-16T18:00:05;5.80;78.90
69628;DHT22;56850;51.984;5.088;2023-01-16T18:02:32;5.80;79.20
69628;DHT22;56850;51.984;5.088;2023-01-16T18:05:00;5.80;79.40
69628;DHT22;56850;51.984;5.088;2023-01-16T18:07:27;5.80;79.60
69628;DHT22;56850;51.984;5.088;2023-01-16T18:09:54;5.80;79.70
69628;DHT22;56850;51.984;5.088;2023-01-16T18:12:21;5.80;79.80
69628;DHT22;56850;51.984;5.088;2023-01-16T18:15:07;5.80;79.80
69628;DHT22;56850;51.984;5.088;2023-01-16T18:17:52;5.80;79.80
69628;DHT22;56850;51.984;5.088;2023-01-16T18:20:20;5.90;79.60
69628;DHT22;56850;51.984;5.088;2023-01-16T18:22:46;5.80;79.50
69628;DHT22;56850;51.984;5.088;2023-01-16T18:25:14;5.80;79.60
69628;DHT22;56850;51.984;5.088;2023-01-16T18:27:41;5.80;79.40
69628;DHT22;56850;51.984;5.088;2023-01-16T18:30:09;5.80;79.70
69628;DHT22;56850;51.984;5.088;2023-01-16T18:32:37;5.80;79.70
69628;DHT22;56850;51.984;5.088;2023-01-16T18:35:06;5.80;79.80
69628;DHT22;56850;51.984;5.088;2023-01-16T18:37:35;5.80;79.80
69628;DHT22;56850;51.984;5.088;2023-01-16T18:40:05;5.90;79.80
69628;DHT22;56850;51.984;5.088;2023-01-16T18:42:51;5.80;79.80
69628;DHT22;56850;51.984;5.088;2023-01-16T18:45:50;5.80;79.80
69628;DHT22;56850;51.984;5.088;2023-01-16T18:48:36;5.80;79.80
69628;DHT22;56850;51.984;5.088;2023-01-16T18:51:22;5.80;79.80
69628;DHT22;56850;51.984;5.088;2023-01-16T18:54:19;5.80;79.70
69628;DHT22;56850;51.984;5.088;2023-01-16T18:57:15;5.80;79.70
69628;DHT22;56850;51.984;5.088;2023-01-16T19:00:13;5.80;79.70
69628;DHT22;56850;51.984;5.088;2023-01-16T19:02:59;5.80;79.50
69628;DHT22;56850;51.984;5.088;2023-01-16T19:05:28;5.80;79.50
69628;DHT22;56850;51.984;5.088;2023-01-16T19:07:57;5.80;79.30
69628;DHT22;56850;51.984;5.088;2023-01-16T19:10:29;5.80;79.20
69628;DHT22;56850;51.984;5.088;2023-01-16T19:12:59;5.80;79.30
69628;DHT22;56850;51.984;5.088;2023-01-16T19:15:28;5.80;79.20
69628;DHT22;56850;51.984;5.088;2023-01-16T19:17:55;5.80;79.20
69628;DHT22;56850;51.984;5.088;2023-01-16T19:20:23;5.80;79.10
69628;DHT22;56850;51.984;5.088;2023-01-16T19:22:51;5.80;79.10
69628;DHT22;56850;51.984;5.088;2023-01-16T19:25:19;5.80;79.10